sensor_id;sensor_type;location;lat;lon;timestamp;P1;durP1;ratioP1;P2;durP2;ratioP2
75718;SDS011;64340;48.534;-3.036;2022-10-15T00:01:41;2.53;;;1.30;;
75718;SDS011;64340;48.534;-3.036;2022-10-15T00:04:07;3.22;;;1.33;;
75718;SDS011;64340;48.534;-3.036;2022-10-15T00:06:33;1.77;;;1.00;;
75718;SDS011;64340;48.534;-3.036;2022-10-15T00:08:59;3.70;;;1.55;;
75718;SDS011;64340;48.534;-3.036;2022-10-15T00:11:25;2.88;;;1.20;;
75718;SDS011;64340;48.534;-3.036;2022-10-15T00:13:56;2.28;;;1.10;;
75718;SDS011;64340;48.534;-3.036;2022-10-15T00:16:24;3.17;;;1.48;;
75718;SDS011;64340;48.534;-3.036;2022-10-15T00:18:55;3.72;;;1.25;;
75718;SDS011;64340;48.534;-3.036;2022-10-15T00:21:23;2.58;;;1.00;;
75718;SDS011;64340;48.534;-3.036;2022-10-15T00:23:49;3.25;;;1.30;;
75718;SDS011;64340;48.534;-3.036;2022-10-15T00:26:16;2.10;;;1.00;;
75718;SDS011;64340;48.534;-3.036;2022-10-15T00:28:44;2.33;;;1.20;;
75718;SDS011;64340;48.534;-3.036;2022-10-15T00:31:11;2.63;;;1.10;;
75718;SDS011;64340;48.534;-3.036;2022-10-15T00:33:39;3.17;;;1.23;;
75718;SDS011;64340;48.534;-3.036;2022-10-15T00:36:14;2.55;;;1.20;;
75718;SDS011;64340;48.534;-3.036;2022-10-15T00:38:41;1.85;;;0.98;;
75718;SDS011;64340;48.534;-3.036;2022-10-15T00:41:09;3.10;;;1.20;;
75718;SDS011;64340;48.534;-3.036;2022-10-15T00:46:05;3.25;;;1.20;;
75718;SDS011;64340;48.534;-3.036;2022-10-15T00:48:39;2.25;;;1.10;;
75718;SDS011;64340;48.534;-3.036;2022-10-15T00:51:05;3.80;;;1.10;;
75718;SDS011;64340;48.534;-3.036;2022-10-15T00:53:32;2.45;;;1.20;;
75718;SDS011;64340;48.534;-3.036;2022-10-15T00:55:58;2.53;;;1.00;;
75718;SDS011;64340;48.534;-3.036;2022-10-15T00:58:25;1.83;;;1.00;;
75718;SDS011;64340;48.534;-3.036;2022-10-15T01:00:56;2.13;;;1.10;;
75718;SDS011;64340;48.534;-3.036;2022-10-15T01:03:22;2.13;;;1.10;;
75718;SDS011;64340;48.534;-3.036;2022-10-15T01:05:49;2.47;;;1.13;;
75718;SDS011;64340;48.534;-3.036;2022-10-15T01:08:16;4.10;;;1.05;;
75718;SDS011;64340;48.534;-3.036;2022-10-15T01:13:34;1.90;;;0.93;;
75718;SDS011;64340;48.534;-3.036;2022-10-15T01:16:09;2.70;;;1.00;;
75718;SDS011;64340;48.534;-3.036;2022-10-15T01:18:56;2.30;;;0.93;;
75718;SDS011;64340;48.534;-3.036;2022-10-15T01:32:09;2.05;;;1.05;;
75718;SDS011;64340;48.534;-3.036;2022-10-15T01:34:55;1.80;;;0.93;;
75718;SDS011;64340;48.534;-3.036;2022-10-15T01:42:55;1.70;;;0.82;;
75718;SDS011;64340;48.534;-3.036;2022-10-15T01:45:56;3.15;;;1.05;;
75718;SDS011;64340;48.534;-3.036;2022-10-15T01:48:17;2.13;;;1.02;;
75718;SDS011;64340;48.534;-3.036;2022-10-15T01:50:46;2.90;;;1.00;;
75718;SDS011;64340;48.534;-3.036;2022-10-15T01:53:16;2.70;;;1.08;;
75718;SDS011;64340;48.534;-3.036;2022-10-15T01:56:07;1.92;;;0.98;;
75718;SDS011;64340;48.534;-3.036;2022-10-15T01:58:37;1.92;;;1.17;;
75718;SDS011;64340;48.534;-3.036;2022-10-15T02:01:06;2.13;;;0.88;;
75718;SDS011;64340;48.534;-3.036;2022-10-15T02:03:41;2.05;;;0.77;;
75718;SDS011;64340;48.534;-3.036;2022-10-15T02:06:12;2.20;;;1.02;;
75718;SDS011;64340;48.534;-3.036;2022-10-15T02:08:45;2.03;;;1.00;;
75718;SDS011;64340;48.534;-3.036;2022-10-15T02:11:24;2.75;;;1.00;;
75718;SDS011;64340;48.534;-3.036;2022-10-15T02:16:37;2.45;;;0.98;;
75718;SDS011;64340;48.534;-3.036;2022-10-15T02:19:43;1.80;;;0.70;;
75718;SDS011;64340;48.534;-3.036;2022-10-15T02:25:29;1.95;;;0.80;;
75718;SDS011;64340;48.534;-3.036;2022-10-15T02:27:57;2.85;;;1.00;;
75718;SDS011;64340;48.534;-3.036;2022-10-15T02:30:24;1.50;;;0.70;;
75718;SDS011;64340;48.534;-3.036;2022-10-15T02:32:53;1.08;;;0.68;;
75718;SDS011;64340;48.534;-3.036;2022-10-15T02:35:22;1.80;;;0.77;;
75718;SDS011;64340;48.534;-3.036;2022-10-15T02:37:50;1.77;;;0.68;;
75718;SDS011;64340;48.534;-3.036;2022-10-15T02:40:21;1.45;;;0.70;;
75718;SDS011;64340;48.534;-3.036;2022-10-15T02:42:51;1.67;;;0.88;;
75718;SDS011;64340;48.534;-3.036;2022-10-15T02:45:18;1.40;;;0.65;;
75718;SDS011;64340;48.534;-3.036;2022-10-15T02:47:45;2.08;;;1.00;;
75718;SDS011;64340;48.534;-3.036;2022-10-15T02:50:11;1.08;;;0.57;;
75718;SDS011;64340;48.534;-3.036;2022-10-15T02:52:36;2.08;;;0.88;;
75718;SDS011;64340;48.534;-3.036;2022-10-15T02:55:02;2.40;;;0.90;;
75718;SDS011;64340;48.534;-3.036;2022-10-15T02:57:28;2.30;;;0.75;;
75718;SDS011;64340;48.534;-3.036;2022-10-15T02:59:54;2.03;;;0.82;;
75718;SDS011;64340;48.534;-3.036;2022-10-15T03:02:19;1.85;;;0.80;;
75718;SDS011;64340;48.534;-3.036;2022-10-15T03:04:45;1.55;;;0.77;;
75718;SDS011;64340;48.534;-3.036;2022-10-15T03:07:11;1.67;;;0.65;;
75718;SDS011;64340;48.534;-3.036;2022-10-15T03:09:38;1.98;;;0.70;;
75718;SDS011;64340;48.534;-3.036;2022-10-15T03:12:04;1.58;;;0.80;;
75718;SDS011;64340;48.534;-3.036;2022-10-15T03:14:30;1.20;;;0.57;;
75718;SDS011;64340;48.534;-3.036;2022-10-15T03:16:55;2.47;;;0.70;;
75718;SDS011;64340;48.534;-3.036;2022-10-15T03:19:21;1.48;;;0.77;;
75718;SDS011;64340;48.534;-3.036;2022-10-15T03:21:47;2.08;;;0.70;;
75718;SDS011;64340;48.534;-3.036;2022-10-15T03:24:13;1.77;;;0.60;;
75718;SDS011;64340;48.534;-3.036;2022-10-15T03:26:38;1.83;;;0.60;;
75718;SDS011;64340;48.534;-3.036;2022-10-15T03:29:04;1.85;;;0.80;;
75718;SDS011;64340;48.534;-3.036;2022-10-15T03:31:30;1.52;;;0.80;;
75718;SDS011;64340;48.534;-3.036;2022-10-15T03:33:56;1.58;;;0.60;;
75718;SDS011;64340;48.534;-3.036;2022-10-15T03:36:21;1.95;;;0.63;;
75718;SDS011;64340;48.534;-3.036;2022-10-15T03:38:47;1.63;;;0.68;;
75718;SDS011;64340;48.534;-3.036;2022-10-15T03:41:13;1.20;;;0.55;;
75718;SDS011;64340;48.534;-3.036;2022-10-15T03:43:39;1.08;;;0.45;;
75718;SDS011;64340;48.534;-3.036;2022-10-15T03:46:04;1.25;;;0.60;;
75718;SDS011;64340;48.534;-3.036;2022-10-15T03:48:30;1.00;;;0.50;;
75718;SDS011;64340;48.534;-3.036;2022-10-15T03:50:56;1.23;;;0.60;;
75718;SDS011;64340;48.534;-3.036;2022-10-15T03:53:23;1.27;;;0.68;;
75718;SDS011;64340;48.534;-3.036;2022-10-15T03:55:48;1.40;;;0.68;;
75718;SDS011;64340;48.534;-3.036;2022-10-15T03:58:15;0.95;;;0.60;;
75718;SDS011;64340;48.534;-3.036;2022-10-15T04:00:41;1.85;;;0.77;;
75718;SDS011;64340;48.534;-3.036;2022-10-15T04:03:07;0.75;;;0.40;;
75718;SDS011;64340;48.534;-3.036;2022-10-15T04:05:33;1.25;;;0.70;;
75718;SDS011;64340;48.534;-3.036;2022-10-15T04:07:59;1.33;;;0.60;;
75718;SDS011;64340;48.534;-3.036;2022-10-15T04:10:25;1.25;;;0.60;;
75718;SDS011;64340;48.534;-3.036;2022-10-15T04:12:50;1.33;;;0.68;;
75718;SDS011;64340;48.534;-3.036;2022-10-15T04:15:16;1.90;;;0.70;;
75718;SDS011;64340;48.534;-3.036;2022-10-15T04:17:42;0.77;;;0.40;;
75718;SDS011;64340;48.534;-3.036;2022-10-15T04:20:08;1.63;;;0.77;;
75718;SDS011;64340;48.534;-3.036;2022-10-15T04:22:35;1.45;;;0.50;;
75718;SDS011;64340;48.534;-3.036;2022-10-15T04:25:02;0.95;;;0.40;;
75718;SDS011;64340;48.534;-3.036;2022-10-15T04:27:28;1.20;;;0.60;;
75718;SDS011;64340;48.534;-3.036;2022-10-15T04:29:53;1.30;;;0.40;;
75718;SDS011;64340;48.534;-3.036;2022-10-15T04:32:19;1.20;;;0.55;;
75718;SDS011;64340;48.534;-3.036;2022-10-15T04:34:45;1.40;;;0.60;;
75718;SDS011;64340;48.534;-3.036;2022-10-15T04:37:11;1.08;;;0.43;;
75718;SDS011;64340;48.534;-3.036;2022-10-15T04:39:38;1.52;;;0.52;;
75718;SDS011;64340;48.534;-3.036;2022-10-15T04:42:04;0.93;;;0.50;;
75718;SDS011;64340;48.534;-3.036;2022-10-15T04:44:29;1.38;;;0.60;;
75718;SDS011;64340;48.534;-3.036;2022-10-15T04:46:55;0.90;;;0.40;;
75718;SDS011;64340;48.534;-3.036;2022-10-15T04:49:22;2.20;;;0.60;;
75718;SDS011;64340;48.534;-3.036;2022-10-15T04:51:47;0.80;;;0.45;;
75718;SDS011;64340;48.534;-3.036;2022-10-15T04:54:13;1.30;;;0.60;;
75718;SDS011;64340;48.534;-3.036;2022-10-15T04:56:39;1.10;;;0.50;;
75718;SDS011;64340;48.534;-3.036;2022-10-15T04:59:05;2.50;;;0.70;;
75718;SDS011;64340;48.534;-3.036;2022-10-15T05:01:32;1.38;;;0.70;;
75718;SDS011;64340;48.534;-3.036;2022-10-15T05:03:58;1.42;;;0.60;;
75718;SDS011;64340;48.534;-3.036;2022-10-15T05:06:24;1.20;;;0.60;;
75718;SDS011;64340;48.534;-3.036;2022-10-15T05:08:53;1.55;;;0.70;;
75718;SDS011;64340;48.534;-3.036;2022-10-15T05:11:19;1.15;;;0.55;;
75718;SDS011;64340;48.534;-3.036;2022-10-15T05:13:47;1.20;;;0.40;;
75718;SDS011;64340;48.534;-3.036;2022-10-15T05:16:16;0.60;;;0.40;;
75718;SDS011;64340;48.534;-3.036;2022-10-15T05:18:45;1.52;;;0.43;;
75718;SDS011;64340;48.534;-3.036;2022-10-15T05:21:12;1.20;;;0.50;;
75718;SDS011;64340;48.534;-3.036;2022-10-15T05:23:38;0.95;;;0.50;;
75718;SDS011;64340;48.534;-3.036;2022-10-15T05:26:09;0.90;;;0.50;;
75718;SDS011;64340;48.534;-3.036;2022-10-15T05:28:37;1.00;;;0.50;;
75718;SDS011;64340;48.534;-3.036;2022-10-15T05:31:04;1.08;;;0.50;;
75718;SDS011;64340;48.534;-3.036;2022-10-15T05:33:29;1.27;;;0.70;;
75718;SDS011;64340;48.534;-3.036;2022-10-15T05:35:55;0.88;;;0.32;;
75718;SDS011;64340;48.534;-3.036;2022-10-15T05:38:21;0.90;;;0.50;;
75718;SDS011;64340;48.534;-3.036;2022-10-15T05:40:47;1.92;;;0.40;;
75718;SDS011;64340;48.534;-3.036;2022-10-15T05:43:14;0.85;;;0.40;;
75718;SDS011;64340;48.534;-3.036;2022-10-15T05:45:40;0.60;;;0.30;;
75718;SDS011;64340;48.534;-3.036;2022-10-15T05:48:06;1.17;;;0.45;;
75718;SDS011;64340;48.534;-3.036;2022-10-15T05:50:32;1.13;;;0.43;;
75718;SDS011;64340;48.534;-3.036;2022-10-15T05:52:57;1.08;;;0.40;;
75718;SDS011;64340;48.534;-3.036;2022-10-15T05:55:23;1.35;;;0.45;;
75718;SDS011;64340;48.534;-3.036;2022-10-15T05:57:49;0.70;;;0.40;;
75718;SDS011;64340;48.534;-3.036;2022-10-15T06:00:15;0.75;;;0.35;;
75718;SDS011;64340;48.534;-3.036;2022-10-15T06:02:40;0.43;;;0.25;;
75718;SDS011;64340;48.534;-3.036;2022-10-15T06:05:06;0.85;;;0.40;;
75718;SDS011;64340;48.534;-3.036;2022-10-15T06:07:32;0.70;;;0.35;;
75718;SDS011;64340;48.534;-3.036;2022-10-15T06:09:58;0.80;;;0.43;;
75718;SDS011;64340;48.534;-3.036;2022-10-15T06:12:24;0.77;;;0.30;;
75718;SDS011;64340;48.534;-3.036;2022-10-15T06:14:49;0.60;;;0.30;;
75718;SDS011;64340;48.534;-3.036;2022-10-15T06:17:15;0.75;;;0.30;;
75718;SDS011;64340;48.534;-3.036;2022-10-15T06:19:41;1.90;;;0.50;;
75718;SDS011;64340;48.534;-3.036;2022-10-15T06:22:07;0.85;;;0.30;;
75718;SDS011;64340;48.534;-3.036;2022-10-15T06:24:32;1.17;;;0.32;;
75718;SDS011;64340;48.534;-3.036;2022-10-15T06:26:58;0.82;;;0.40;;
75718;SDS011;64340;48.534;-3.036;2022-10-15T06:29:24;0.93;;;0.40;;
75718;SDS011;64340;48.534;-3.036;2022-10-15T06:31:51;0.80;;;0.30;;
75718;SDS011;64340;48.534;-3.036;2022-10-15T06:34:17;0.40;;;0.30;;
75718;SDS011;64340;48.534;-3.036;2022-10-15T06:36:43;0.65;;;0.30;;
75718;SDS011;64340;48.534;-3.036;2022-10-15T06:39:09;0.68;;;0.32;;
75718;SDS011;64340;48.534;-3.036;2022-10-15T06:41:35;0.82;;;0.35;;
75718;SDS011;64340;48.534;-3.036;2022-10-15T06:44:00;0.45;;;0.25;;
75718;SDS011;64340;48.534;-3.036;2022-10-15T06:46:26;1.23;;;0.30;;
75718;SDS011;64340;48.534;-3.036;2022-10-15T06:48:52;1.65;;;0.35;;
75718;SDS011;64340;48.534;-3.036;2022-10-15T06:51:19;0.43;;;0.20;;
75718;SDS011;64340;48.534;-3.036;2022-10-15T06:53:45;1.02;;;0.40;;
75718;SDS011;64340;48.534;-3.036;2022-10-15T06:56:11;0.60;;;0.30;;
75718;SDS011;64340;48.534;-3.036;2022-10-15T06:58:39;0.77;;;0.30;;
75718;SDS011;64340;48.534;-3.036;2022-10-15T07:01:06;0.55;;;0.30;;
75718;SDS011;64340;48.534;-3.036;2022-10-15T07:03:34;1.10;;;0.40;;
75718;SDS011;64340;48.534;-3.036;2022-10-15T07:06:03;1.35;;;0.40;;
75718;SDS011;64340;48.534;-3.036;2022-10-15T07:08:30;1.02;;;0.45;;
75718;SDS011;64340;48.534;-3.036;2022-10-15T07:10:57;1.40;;;0.40;;
75718;SDS011;64340;48.534;-3.036;2022-10-15T07:13:25;1.25;;;0.45;;
75718;SDS011;64340;48.534;-3.036;2022-10-15T07:15:51;0.82;;;0.40;;
75718;SDS011;64340;48.534;-3.036;2022-10-15T07:18:18;1.00;;;0.40;;
75718;SDS011;64340;48.534;-3.036;2022-10-15T07:20:44;1.58;;;0.55;;
75718;SDS011;64340;48.534;-3.036;2022-10-15T07:23:10;1.25;;;0.40;;
75718;SDS011;64340;48.534;-3.036;2022-10-15T07:25:36;1.75;;;0.50;;
75718;SDS011;64340;48.534;-3.036;2022-10-15T07:28:03;1.65;;;0.70;;
75718;SDS011;64340;48.534;-3.036;2022-10-15T07:30:30;1.77;;;0.90;;
75718;SDS011;64340;48.534;-3.036;2022-10-15T07:32:56;1.80;;;1.25;;
75718;SDS011;64340;48.534;-3.036;2022-10-15T07:35:23;3.10;;;1.65;;
75718;SDS011;64340;48.534;-3.036;2022-10-15T07:37:50;3.35;;;1.50;;
75718;SDS011;64340;48.534;-3.036;2022-10-15T07:40:16;2.90;;;1.45;;
75718;SDS011;64340;48.534;-3.036;2022-10-15T07:42:43;3.00;;;1.52;;
75718;SDS011;64340;48.534;-3.036;2022-10-15T07:45:09;3.45;;;1.20;;
75718;SDS011;64340;48.534;-3.036;2022-10-15T07:47:35;2.65;;;1.13;;
75718;SDS011;64340;48.534;-3.036;2022-10-15T07:50:01;2.45;;;1.38;;
75718;SDS011;64340;48.534;-3.036;2022-10-15T07:52:26;1.70;;;1.02;;
75718;SDS011;64340;48.534;-3.036;2022-10-15T07:54:52;3.55;;;1.02;;
75718;SDS011;64340;48.534;-3.036;2022-10-15T07:57:18;4.32;;;1.10;;
75718;SDS011;64340;48.534;-3.036;2022-10-15T07:59:44;3.38;;;0.93;;
75718;SDS011;64340;48.534;-3.036;2022-10-15T08:02:16;3.70;;;1.00;;
75718;SDS011;64340;48.534;-3.036;2022-10-15T08:04:42;2.50;;;1.13;;
75718;SDS011;64340;48.534;-3.036;2022-10-15T08:07:08;2.72;;;0.93;;
75718;SDS011;64340;48.534;-3.036;2022-10-15T08:09:34;3.05;;;1.17;;
75718;SDS011;64340;48.534;-3.036;2022-10-15T08:12:00;2.40;;;1.20;;
75718;SDS011;64340;48.534;-3.036;2022-10-15T08:14:26;1.73;;;1.02;;
75718;SDS011;64340;48.534;-3.036;2022-10-15T08:16:51;3.95;;;1.20;;
75718;SDS011;64340;48.534;-3.036;2022-10-15T08:19:17;2.47;;;1.10;;
75718;SDS011;64340;48.534;-3.036;2022-10-15T08:21:44;2.83;;;1.20;;
75718;SDS011;64340;48.534;-3.036;2022-10-15T08:24:10;3.85;;;1.30;;
75718;SDS011;64340;48.534;-3.036;2022-10-15T08:26:36;4.22;;;1.50;;
75718;SDS011;64340;48.534;-3.036;2022-10-15T08:29:02;4.38;;;1.77;;
75718;SDS011;64340;48.534;-3.036;2022-10-15T08:31:28;5.22;;;1.90;;
75718;SDS011;64340;48.534;-3.036;2022-10-15T08:33:55;6.20;;;2.40;;
75718;SDS011;64340;48.534;-3.036;2022-10-15T08:36:24;7.90;;;2.55;;
75718;SDS011;64340;48.534;-3.036;2022-10-15T08:38:50;8.93;;;2.67;;
75718;SDS011;64340;48.534;-3.036;2022-10-15T08:41:29;6.80;;;2.30;;
75718;SDS011;64340;48.534;-3.036;2022-10-15T08:44:00;7.00;;;2.25;;
75718;SDS011;64340;48.534;-3.036;2022-10-15T08:46:43;6.75;;;1.95;;
75718;SDS011;64340;48.534;-3.036;2022-10-15T08:52:00;4.70;;;2.13;;
75718;SDS011;64340;48.534;-3.036;2022-10-15T08:54:32;7.30;;;2.15;;
75718;SDS011;64340;48.534;-3.036;2022-10-15T09:02:17;5.53;;;2.00;;
75718;SDS011;64340;48.534;-3.036;2022-10-15T09:07:28;6.32;;;2.28;;
75718;SDS011;64340;48.534;-3.036;2022-10-15T09:10:11;8.05;;;2.55;;
75718;SDS011;64340;48.534;-3.036;2022-10-15T09:15:17;6.13;;;2.58;;
75718;SDS011;64340;48.534;-3.036;2022-10-15T09:17:45;7.53;;;2.75;;
75718;SDS011;64340;48.534;-3.036;2022-10-15T09:20:17;4.30;;;2.00;;
75718;SDS011;64340;48.534;-3.036;2022-10-15T09:22:49;4.25;;;2.38;;
75718;SDS011;64340;48.534;-3.036;2022-10-15T09:25:17;4.30;;;2.15;;
75718;SDS011;64340;48.534;-3.036;2022-10-15T09:27:48;6.65;;;2.30;;
75718;SDS011;64340;48.534;-3.036;2022-10-15T09:35:54;4.75;;;2.03;;
75718;SDS011;64340;48.534;-3.036;2022-10-15T09:41:22;5.05;;;2.10;;
75718;SDS011;64340;48.534;-3.036;2022-10-15T09:43:52;6.18;;;1.67;;
75718;SDS011;64340;48.534;-3.036;2022-10-15T09:46:22;6.22;;;2.22;;
75718;SDS011;64340;48.534;-3.036;2022-10-15T09:49:04;6.57;;;2.47;;
75718;SDS011;64340;48.534;-3.036;2022-10-15T09:51:44;5.20;;;2.20;;
75718;SDS011;64340;48.534;-3.036;2022-10-15T09:57:07;7.28;;;2.53;;
75718;SDS011;64340;48.534;-3.036;2022-10-15T09:59:35;6.68;;;2.67;;
75718;SDS011;64340;48.534;-3.036;2022-10-15T10:02:03;5.80;;;2.53;;
75718;SDS011;64340;48.534;-3.036;2022-10-15T10:04:49;6.07;;;2.40;;
75718;SDS011;64340;48.534;-3.036;2022-10-15T10:10:21;6.47;;;2.60;;
75718;SDS011;64340;48.534;-3.036;2022-10-15T10:12:53;7.32;;;2.72;;
75718;SDS011;64340;48.534;-3.036;2022-10-15T10:17:50;6.15;;;2.70;;
75718;SDS011;64340;48.534;-3.036;2022-10-15T10:20:18;7.18;;;2.17;;
75718;SDS011;64340;48.534;-3.036;2022-10-15T10:22:46;5.47;;;2.20;;
75718;SDS011;64340;48.534;-3.036;2022-10-15T10:27:52;6.30;;;2.25;;
75718;SDS011;64340;48.534;-3.036;2022-10-15T10:30:34;4.28;;;2.00;;
75718;SDS011;64340;48.534;-3.036;2022-10-15T10:33:23;4.43;;;1.67;;
75718;SDS011;64340;48.534;-3.036;2022-10-15T10:35:52;5.65;;;1.90;;
75718;SDS011;64340;48.534;-3.036;2022-10-15T10:40:53;7.70;;;2.08;;
75718;SDS011;64340;48.534;-3.036;2022-10-15T10:43:29;4.57;;;1.67;;
75718;SDS011;64340;48.534;-3.036;2022-10-15T10:51:13;4.43;;;1.65;;
75718;SDS011;64340;48.534;-3.036;2022-10-15T10:56:23;5.38;;;1.60;;
75718;SDS011;64340;48.534;-3.036;2022-10-15T11:01:31;4.10;;;1.52;;
75718;SDS011;64340;48.534;-3.036;2022-10-15T11:03:56;3.40;;;1.70;;
75718;SDS011;64340;48.534;-3.036;2022-10-15T11:06:24;3.00;;;1.23;;
75718;SDS011;64340;48.534;-3.036;2022-10-15T11:11:31;4.60;;;1.63;;
75718;SDS011;64340;48.534;-3.036;2022-10-15T11:14:02;4.30;;;1.75;;
75718;SDS011;64340;48.534;-3.036;2022-10-15T11:19:37;4.07;;;1.50;;
75718;SDS011;64340;48.534;-3.036;2022-10-15T11:30:13;2.80;;;1.27;;
75718;SDS011;64340;48.534;-3.036;2022-10-15T11:35:56;3.38;;;1.27;;
75718;SDS011;64340;48.534;-3.036;2022-10-15T11:42:22;4.53;;;1.50;;
75718;SDS011;64340;48.534;-3.036;2022-10-15T11:44:34;2.85;;;1.17;;
75718;SDS011;64340;48.534;-3.036;2022-10-15T11:50:18;2.72;;;1.33;;
75718;SDS011;64340;48.534;-3.036;2022-10-15T11:53:10;4.97;;;1.73;;
75718;SDS011;64340;48.534;-3.036;2022-10-15T11:55:49;4.70;;;1.42;;
75718;SDS011;64340;48.534;-3.036;2022-10-15T11:58:27;2.33;;;1.30;;
75718;SDS011;64340;48.534;-3.036;2022-10-15T12:01:19;3.88;;;1.25;;
75718;SDS011;64340;48.534;-3.036;2022-10-15T12:04:11;3.75;;;1.17;;
75718;SDS011;64340;48.534;-3.036;2022-10-15T12:06:57;3.80;;;1.48;;
75718;SDS011;64340;48.534;-3.036;2022-10-15T12:09:33;3.28;;;1.13;;
75718;SDS011;64340;48.534;-3.036;2022-10-15T12:14:38;3.47;;;1.35;;
75718;SDS011;64340;48.534;-3.036;2022-10-15T12:17:24;3.55;;;1.10;;
75718;SDS011;64340;48.534;-3.036;2022-10-15T12:20:11;3.92;;;1.40;;
75718;SDS011;64340;48.534;-3.036;2022-10-15T12:22:39;2.42;;;1.00;;
75718;SDS011;64340;48.534;-3.036;2022-10-15T12:28:02;3.28;;;1.10;;
75718;SDS011;64340;48.534;-3.036;2022-10-15T12:30:37;3.15;;;1.10;;
75718;SDS011;64340;48.534;-3.036;2022-10-15T12:35:58;3.53;;;1.17;;
75718;SDS011;64340;48.534;-3.036;2022-10-15T12:38:30;3.20;;;1.17;;
75718;SDS011;64340;48.534;-3.036;2022-10-15T12:41:03;5.28;;;1.42;;
75718;SDS011;64340;48.534;-3.036;2022-10-15T12:43:35;3.92;;;1.20;;
75718;SDS011;64340;48.534;-3.036;2022-10-15T12:46:10;3.90;;;1.10;;
75718;SDS011;64340;48.534;-3.036;2022-10-15T12:53:47;4.82;;;1.10;;
75718;SDS011;64340;48.534;-3.036;2022-10-15T12:58:41;5.50;;;1.27;;
75718;SDS011;64340;48.534;-3.036;2022-10-15T13:03:57;11.60;;;1.92;;
75718;SDS011;64340;48.534;-3.036;2022-10-15T13:06:25;17.08;;;2.10;;
75718;SDS011;64340;48.534;-3.036;2022-10-15T13:14:02;10.35;;;1.80;;
75718;SDS011;64340;48.534;-3.036;2022-10-15T13:16:33;8.38;;;1.60;;
75718;SDS011;64340;48.534;-3.036;2022-10-15T13:19:00;7.55;;;1.38;;
75718;SDS011;64340;48.534;-3.036;2022-10-15T13:21:49;6.45;;;1.33;;
75718;SDS011;64340;48.534;-3.036;2022-10-15T13:24:19;5.18;;;1.00;;
75718;SDS011;64340;48.534;-3.036;2022-10-15T13:29:17;4.53;;;1.25;;
75718;SDS011;64340;48.534;-3.036;2022-10-15T13:31:45;5.00;;;1.20;;
75718;SDS011;64340;48.534;-3.036;2022-10-15T13:36:55;5.53;;;1.20;;
75718;SDS011;64340;48.534;-3.036;2022-10-15T13:39:28;6.75;;;1.20;;
75718;SDS011;64340;48.534;-3.036;2022-10-15T13:42:14;6.25;;;1.77;;
75718;SDS011;64340;48.534;-3.036;2022-10-15T13:44:42;5.97;;;1.33;;
75718;SDS011;64340;48.534;-3.036;2022-10-15T13:50:12;5.90;;;0.95;;
75718;SDS011;64340;48.534;-3.036;2022-10-15T13:52:41;11.57;;;1.85;;
75718;SDS011;64340;48.534;-3.036;2022-10-15T13:55:17;6.28;;;1.40;;
75718;SDS011;64340;48.534;-3.036;2022-10-15T13:57:55;13.43;;;2.15;;
75718;SDS011;64340;48.534;-3.036;2022-10-15T14:00:30;9.32;;;1.73;;
75718;SDS011;64340;48.534;-3.036;2022-10-15T14:03:08;13.27;;;2.60;;
75718;SDS011;64340;48.534;-3.036;2022-10-15T14:05:39;9.90;;;2.83;;
75718;SDS011;64340;48.534;-3.036;2022-10-15T14:08:13;16.17;;;2.63;;
75718;SDS011;64340;48.534;-3.036;2022-10-15T14:10:40;14.00;;;2.38;;
75718;SDS011;64340;48.534;-3.036;2022-10-15T14:13:07;12.48;;;2.03;;
75718;SDS011;64340;48.534;-3.036;2022-10-15T14:18:28;13.68;;;2.67;;
75718;SDS011;64340;48.534;-3.036;2022-10-15T14:20:58;11.77;;;2.03;;
75718;SDS011;64340;48.534;-3.036;2022-10-15T14:23:27;9.73;;;2.00;;
75718;SDS011;64340;48.534;-3.036;2022-10-15T14:25:55;9.73;;;1.90;;
75718;SDS011;64340;48.534;-3.036;2022-10-15T14:28:26;8.65;;;2.03;;
75718;SDS011;64340;48.534;-3.036;2022-10-15T14:30:53;12.63;;;2.70;;
75718;SDS011;64340;48.534;-3.036;2022-10-15T14:33:30;11.60;;;3.05;;
75718;SDS011;64340;48.534;-3.036;2022-10-15T14:38:47;10.35;;;2.55;;
75718;SDS011;64340;48.534;-3.036;2022-10-15T14:41:21;14.98;;;2.50;;
75718;SDS011;64340;48.534;-3.036;2022-10-15T14:44:02;9.65;;;2.72;;
75718;SDS011;64340;48.534;-3.036;2022-10-15T14:46:41;13.88;;;3.00;;
75718;SDS011;64340;48.534;-3.036;2022-10-15T14:49:17;10.82;;;2.63;;
75718;SDS011;64340;48.534;-3.036;2022-10-15T14:54:19;12.60;;;2.53;;
75718;SDS011;64340;48.534;-3.036;2022-10-15T14:56:53;13.82;;;2.88;;
75718;SDS011;64340;48.534;-3.036;2022-10-15T14:59:20;13.40;;;2.60;;
75718;SDS011;64340;48.534;-3.036;2022-10-15T15:01:50;10.70;;;2.95;;
75718;SDS011;64340;48.534;-3.036;2022-10-15T15:07:28;16.42;;;2.60;;
75718;SDS011;64340;48.534;-3.036;2022-10-15T15:09:54;17.15;;;3.00;;
75718;SDS011;64340;48.534;-3.036;2022-10-15T15:12:21;15.38;;;3.20;;
75718;SDS011;64340;48.534;-3.036;2022-10-15T15:14:48;10.25;;;2.67;;
75718;SDS011;64340;48.534;-3.036;2022-10-15T15:17:22;13.00;;;2.53;;
75718;SDS011;64340;48.534;-3.036;2022-10-15T15:19:50;8.52;;;2.65;;
75718;SDS011;64340;48.534;-3.036;2022-10-15T15:22:30;15.02;;;2.72;;
75718;SDS011;64340;48.534;-3.036;2022-10-15T15:24:59;7.88;;;2.80;;
75718;SDS011;64340;48.534;-3.036;2022-10-15T15:27:30;11.30;;;2.78;;
75718;SDS011;64340;48.534;-3.036;2022-10-15T15:30:02;10.48;;;2.58;;
75718;SDS011;64340;48.534;-3.036;2022-10-15T15:32:31;11.77;;;2.63;;
75718;SDS011;64340;48.534;-3.036;2022-10-15T15:34:57;14.65;;;2.75;;
75718;SDS011;64340;48.534;-3.036;2022-10-15T15:37:23;8.77;;;2.60;;
75718;SDS011;64340;48.534;-3.036;2022-10-15T15:39:50;8.25;;;2.72;;
75718;SDS011;64340;48.534;-3.036;2022-10-15T15:42:17;15.10;;;2.60;;
75718;SDS011;64340;48.534;-3.036;2022-10-15T15:44:45;9.82;;;2.58;;
75718;SDS011;64340;48.534;-3.036;2022-10-15T15:47:11;8.98;;;2.30;;
75718;SDS011;64340;48.534;-3.036;2022-10-15T15:49:38;7.32;;;2.50;;
75718;SDS011;64340;48.534;-3.036;2022-10-15T15:52:05;8.68;;;2.33;;
75718;SDS011;64340;48.534;-3.036;2022-10-15T15:54:33;10.48;;;2.55;;
75718;SDS011;64340;48.534;-3.036;2022-10-15T15:56:58;7.32;;;2.42;;
75718;SDS011;64340;48.534;-3.036;2022-10-15T15:59:24;8.93;;;2.30;;
75718;SDS011;64340;48.534;-3.036;2022-10-15T16:01:50;7.13;;;2.53;;
75718;SDS011;64340;48.534;-3.036;2022-10-15T16:04:16;8.60;;;2.55;;
75718;SDS011;64340;48.534;-3.036;2022-10-15T16:06:42;5.55;;;1.85;;
75718;SDS011;64340;48.534;-3.036;2022-10-15T16:09:08;10.43;;;2.60;;
75718;SDS011;64340;48.534;-3.036;2022-10-15T16:11:38;6.93;;;2.40;;
75718;SDS011;64340;48.534;-3.036;2022-10-15T16:14:04;7.35;;;2.22;;
75718;SDS011;64340;48.534;-3.036;2022-10-15T16:16:30;5.93;;;2.25;;
75718;SDS011;64340;48.534;-3.036;2022-10-15T16:18:55;6.03;;;2.28;;
75718;SDS011;64340;48.534;-3.036;2022-10-15T16:21:22;6.70;;;2.00;;
75718;SDS011;64340;48.534;-3.036;2022-10-15T16:23:51;9.82;;;2.00;;
75718;SDS011;64340;48.534;-3.036;2022-10-15T16:26:17;6.68;;;2.10;;
75718;SDS011;64340;48.534;-3.036;2022-10-15T16:28:43;7.05;;;2.20;;
75718;SDS011;64340;48.534;-3.036;2022-10-15T16:31:13;5.75;;;2.05;;
75718;SDS011;64340;48.534;-3.036;2022-10-15T16:33:47;4.45;;;1.65;;
75718;SDS011;64340;48.534;-3.036;2022-10-15T16:36:22;6.25;;;1.92;;
75718;SDS011;64340;48.534;-3.036;2022-10-15T16:38:49;6.18;;;1.80;;
75718;SDS011;64340;48.534;-3.036;2022-10-15T16:41:15;9.10;;;2.00;;
75718;SDS011;64340;48.534;-3.036;2022-10-15T16:43:43;6.00;;;1.95;;
75718;SDS011;64340;48.534;-3.036;2022-10-15T16:46:09;5.95;;;2.15;;
75718;SDS011;64340;48.534;-3.036;2022-10-15T16:48:35;12.52;;;3.22;;
75718;SDS011;64340;48.534;-3.036;2022-10-15T16:51:02;12.98;;;4.00;;
75718;SDS011;64340;48.534;-3.036;2022-10-15T16:53:34;16.75;;;4.38;;
75718;SDS011;64340;48.534;-3.036;2022-10-15T16:56:07;15.65;;;4.78;;
75718;SDS011;64340;48.534;-3.036;2022-10-15T16:58:36;12.68;;;3.80;;
75718;SDS011;64340;48.534;-3.036;2022-10-15T17:01:03;12.00;;;3.88;;
75718;SDS011;64340;48.534;-3.036;2022-10-15T17:03:32;7.68;;;2.53;;
75718;SDS011;64340;48.534;-3.036;2022-10-15T17:06:00;7.68;;;2.67;;